EJA823 KSAN-KLAX
Flight info
| Callsign | EJA823 |
|---|---|
| Flight time | 0h 32m |
| Altitude | 10000 |
| Route | CWARD2 SLI |
| Aircraft | C700/M-SBDGHM1RWXY/LB2 |
Departure
| Time | 2026-04-25 03:26 |
|---|---|
| Airport | San Diego International Airport (KSAN) |
Arrival
| Time | 2026-04-25 03:59 |
|---|---|
| Airport | Los Angeles International Airport (KLAX) |
| Time | Latitude | Longitude | Altitude | Speed | Heading |
|---|---|---|---|---|---|
| 2026-04-25 02:57 | 32.73330 | -117.17821 | 25 ft | 0 kts | 147° |
| 2026-04-25 03:22 | 32.73327 | -117.17822 | 24 ft | 1 kts | 180° |
| 2026-04-25 03:22 | 32.73333 | -117.17841 | 30 ft | 7 kts | 306° |
| 2026-04-25 03:23 | 32.73375 | -117.17903 | 26 ft | 8 kts | 288° |
| 2026-04-25 03:23 | 32.73349 | -117.17953 | 27 ft | 9 kts | 197° |
| 2026-04-25 03:23 | 32.73269 | -117.17979 | 24 ft | 12 kts | 190° |
| 2026-04-25 03:23 | 32.73215 | -117.17916 | 22 ft | 12 kts | 106° |
| 2026-04-25 03:24 | 32.73187 | -117.17803 | 23 ft | 10 kts | 105° |
| 2026-04-25 03:24 | 32.73176 | -117.17755 | 23 ft | 5 kts | 105° |
| 2026-04-25 03:24 | 32.73165 | -117.17710 | 24 ft | 3 kts | 105° |
| 2026-04-25 03:24 | 32.73154 | -117.17677 | 23 ft | 3 kts | 138° |
| 2026-04-25 03:25 | 32.73123 | -117.17668 | 23 ft | 0 kts | 187° |
| 2026-04-25 03:25 | 32.73121 | -117.17669 | 23 ft | 3 kts | 189° |
| 2026-04-25 03:25 | 32.73077 | -117.17682 | 22 ft | 2 kts | 208° |
| 2026-04-25 03:26 | 32.73063 | -117.17762 | 23 ft | 19 kts | 285° |
| 2026-04-25 03:26 | 32.73165 | -117.18181 | 25 ft | 98 kts | 286° |
| 2026-04-25 03:26 | 32.73434 | -117.19259 | 251 ft | 163 kts | 285° |
| 2026-04-25 03:26 | 32.73873 | -117.20667 | 1012 ft | 202 kts | 296° |
| 2026-04-25 03:27 | 32.74701 | -117.22181 | 2036 ft | 233 kts | 304° |
| 2026-04-25 03:27 | 32.75668 | -117.23858 | 3184 ft | 254 kts | 303° |
| 2026-04-25 03:27 | 32.76534 | -117.25460 | 4180 ft | 208 kts | 300° |
| 2026-04-25 03:27 | 32.77232 | -117.26786 | 4859 ft | 177 kts | 300° |
| 2026-04-25 03:28 | 32.77849 | -117.27946 | 5306 ft | 157 kts | 300° |
| 2026-04-25 03:28 | 32.78418 | -117.29009 | 5682 ft | 149 kts | 299° |
| 2026-04-25 03:28 | 32.78999 | -117.30103 | 6553 ft | 167 kts | 299° |
| 2026-04-25 03:28 | 32.79432 | -117.30915 | 7146 ft | 183 kts | 299° |
| 2026-04-25 03:29 | 32.80196 | -117.32247 | 8051 ft | 205 kts | 304° |
| 2026-04-25 03:29 | 32.81087 | -117.33593 | 8947 ft | 209 kts | 304° |
| 2026-04-25 03:29 | 32.82291 | -117.35449 | 9985 ft | 223 kts | 303° |
| 2026-04-25 03:29 | 32.82924 | -117.36438 | 9993 ft | 226 kts | 303° |
| 2026-04-25 03:30 | 32.83862 | -117.37887 | 9989 ft | 216 kts | 303° |
| 2026-04-25 03:30 | 32.84770 | -117.39292 | 9988 ft | 213 kts | 303° |
| 2026-04-25 03:30 | 32.85671 | -117.40695 | 9988 ft | 214 kts | 303° |
| 2026-04-25 03:30 | 32.86582 | -117.42111 | 9989 ft | 216 kts | 303° |
| 2026-04-25 03:31 | 32.87500 | -117.43535 | 9990 ft | 217 kts | 303° |
| 2026-04-25 03:31 | 32.88419 | -117.44963 | 9989 ft | 217 kts | 303° |
| 2026-04-25 03:31 | 32.89335 | -117.46384 | 9986 ft | 216 kts | 303° |
| 2026-04-25 03:31 | 32.90238 | -117.47789 | 9979 ft | 216 kts | 303° |
| 2026-04-25 03:32 | 32.91152 | -117.49211 | 9978 ft | 216 kts | 303° |
| 2026-04-25 03:32 | 32.92064 | -117.50630 | 9977 ft | 216 kts | 303° |
| 2026-04-25 03:32 | 32.92977 | -117.52051 | 9975 ft | 216 kts | 303° |
| 2026-04-25 03:32 | 32.93890 | -117.53473 | 9974 ft | 216 kts | 303° |
| 2026-04-25 03:33 | 32.94804 | -117.54896 | 9973 ft | 216 kts | 303° |
| 2026-04-25 03:33 | 32.95718 | -117.56320 | 9974 ft | 216 kts | 303° |
| 2026-04-25 03:33 | 32.96635 | -117.57749 | 9974 ft | 217 kts | 303° |
| 2026-04-25 03:33 | 32.97541 | -117.59163 | 9974 ft | 217 kts | 303° |
| 2026-04-25 03:34 | 32.98458 | -117.60593 | 9977 ft | 217 kts | 303° |
| 2026-04-25 03:34 | 32.99375 | -117.62025 | 9977 ft | 216 kts | 303° |
| 2026-04-25 03:34 | 33.00288 | -117.63449 | 9983 ft | 216 kts | 303° |
| 2026-04-25 03:34 | 33.01204 | -117.64880 | 9975 ft | 217 kts | 303° |
| 2026-04-25 03:35 | 33.02106 | -117.66291 | 9978 ft | 216 kts | 303° |
| 2026-04-25 03:35 | 33.03019 | -117.67716 | 9978 ft | 216 kts | 303° |
| 2026-04-25 03:35 | 33.03932 | -117.69144 | 9978 ft | 216 kts | 303° |
| 2026-04-25 03:35 | 33.04845 | -117.70573 | 9978 ft | 216 kts | 303° |
| 2026-04-25 03:36 | 33.05758 | -117.72002 | 9980 ft | 217 kts | 303° |
| 2026-04-25 03:36 | 33.06753 | -117.73354 | 9975 ft | 220 kts | 314° |
| 2026-04-25 03:36 | 33.07935 | -117.74518 | 9978 ft | 220 kts | 315° |
| 2026-04-25 03:36 | 33.09096 | -117.75708 | 9976 ft | 220 kts | 314° |
| 2026-04-25 03:37 | 33.10243 | -117.76883 | 9973 ft | 220 kts | 314° |
| 2026-04-25 03:37 | 33.11408 | -117.78068 | 9986 ft | 219 kts | 314° |
| 2026-04-25 03:37 | 33.12570 | -117.79249 | 9994 ft | 220 kts | 314° |
| 2026-04-25 03:37 | 33.13738 | -117.80437 | 9994 ft | 221 kts | 314° |
| 2026-04-25 03:38 | 33.14890 | -117.81608 | 9994 ft | 218 kts | 314° |
| 2026-04-25 03:38 | 33.16058 | -117.82801 | 9994 ft | 221 kts | 314° |
| 2026-04-25 03:38 | 33.17231 | -117.83993 | 9999 ft | 221 kts | 314° |
| 2026-04-25 03:38 | 33.18387 | -117.85167 | 9998 ft | 221 kts | 315° |
| 2026-04-25 03:39 | 33.19719 | -117.86128 | 9995 ft | 227 kts | 331° |
| 2026-04-25 03:39 | 33.21247 | -117.86666 | 9995 ft | 231 kts | 343° |
| 2026-04-25 03:39 | 33.22826 | -117.87040 | 9997 ft | 230 kts | 342° |
| 2026-04-25 03:39 | 33.24397 | -117.87437 | 9992 ft | 231 kts | 342° |
| 2026-04-25 03:40 | 33.25959 | -117.87829 | 9994 ft | 232 kts | 342° |
| 2026-04-25 03:40 | 33.27546 | -117.88223 | 9996 ft | 233 kts | 342° |
| 2026-04-25 03:40 | 33.29136 | -117.88618 | 9996 ft | 233 kts | 342° |
| 2026-04-25 03:40 | 33.30731 | -117.89015 | 9998 ft | 233 kts | 342° |
| 2026-04-25 03:41 | 33.32320 | -117.89410 | 10000 ft | 232 kts | 342° |
| 2026-04-25 03:41 | 33.33863 | -117.89793 | 9840 ft | 225 kts | 342° |
| 2026-04-25 03:41 | 33.35423 | -117.90185 | 9139 ft | 230 kts | 342° |
| 2026-04-25 03:41 | 33.36988 | -117.90574 | 8608 ft | 227 kts | 343° |
| 2026-04-25 03:42 | 33.38529 | -117.90969 | 8066 ft | 225 kts | 341° |
| 2026-04-25 03:42 | 33.39971 | -117.91494 | 7987 ft | 211 kts | 338° |
| 2026-04-25 03:42 | 33.41407 | -117.92024 | 7988 ft | 223 kts | 338° |
| 2026-04-25 03:42 | 33.42905 | -117.92566 | 7994 ft | 226 kts | 339° |
| 2026-04-25 03:43 | 33.44413 | -117.93107 | 7994 ft | 226 kts | 339° |
| 2026-04-25 03:43 | 33.45912 | -117.93651 | 7994 ft | 225 kts | 339° |
| 2026-04-25 03:43 | 33.47390 | -117.94189 | 7994 ft | 225 kts | 339° |
| 2026-04-25 03:43 | 33.48886 | -117.94733 | 7994 ft | 224 kts | 339° |
| 2026-04-25 03:44 | 33.50384 | -117.95277 | 7992 ft | 224 kts | 339° |
| 2026-04-25 03:44 | 33.51874 | -117.95820 | 7995 ft | 224 kts | 339° |
| 2026-04-25 03:44 | 33.53372 | -117.96366 | 7994 ft | 226 kts | 339° |
| 2026-04-25 03:44 | 33.54872 | -117.96911 | 7959 ft | 220 kts | 339° |
| 2026-04-25 03:45 | 33.56347 | -117.97447 | 7337 ft | 224 kts | 339° |
| 2026-04-25 03:45 | 33.57831 | -117.97989 | 6851 ft | 221 kts | 340° |
| 2026-04-25 03:45 | 33.59306 | -117.98526 | 6348 ft | 220 kts | 340° |
| 2026-04-25 03:45 | 33.60754 | -117.99053 | 5831 ft | 219 kts | 340° |
| 2026-04-25 03:46 | 33.62210 | -117.99584 | 5314 ft | 218 kts | 340° |
| 2026-04-25 03:46 | 33.63649 | -118.00109 | 5003 ft | 209 kts | 341° |
| 2026-04-25 03:46 | 33.65029 | -118.00612 | 4992 ft | 210 kts | 341° |
| 2026-04-25 03:46 | 33.66471 | -118.01140 | 5009 ft | 219 kts | 341° |
| 2026-04-25 03:47 | 33.67939 | -118.01676 | 5004 ft | 220 kts | 341° |
| 2026-04-25 03:47 | 33.69386 | -118.02203 | 5004 ft | 220 kts | 341° |
| 2026-04-25 03:47 | 33.70838 | -118.02786 | 4998 ft | 219 kts | 338° |
| 2026-04-25 03:47 | 33.72260 | -118.03429 | 4997 ft | 218 kts | 337° |
| 2026-04-25 03:48 | 33.73688 | -118.04052 | 4996 ft | 217 kts | 339° |
| 2026-04-25 03:48 | 33.75117 | -118.04658 | 4950 ft | 217 kts | 338° |
| 2026-04-25 03:48 | 33.76542 | -118.05266 | 4947 ft | 218 kts | 338° |
| 2026-04-25 03:48 | 33.77969 | -118.05877 | 4952 ft | 218 kts | 338° |
| 2026-04-25 03:49 | 33.79403 | -118.06491 | 4959 ft | 219 kts | 338° |
| 2026-04-25 03:49 | 33.80837 | -118.07105 | 4959 ft | 219 kts | 338° |
| 2026-04-25 03:49 | 33.82270 | -118.07719 | 4955 ft | 218 kts | 339° |
| 2026-04-25 03:49 | 33.83694 | -118.08328 | 4953 ft | 217 kts | 338° |
| 2026-04-25 03:50 | 33.85117 | -118.08939 | 4950 ft | 218 kts | 339° |
| 2026-04-25 03:50 | 33.86539 | -118.09549 | 4955 ft | 220 kts | 338° |
| 2026-04-25 03:50 | 33.87987 | -118.10169 | 4960 ft | 221 kts | 338° |
| 2026-04-25 03:50 | 33.89433 | -118.10792 | 4987 ft | 220 kts | 339° |
| 2026-04-25 03:51 | 33.90873 | -118.11408 | 4983 ft | 219 kts | 338° |
| 2026-04-25 03:51 | 33.92315 | -118.12029 | 4984 ft | 220 kts | 339° |
| 2026-04-25 03:51 | 33.93714 | -118.12758 | 4990 ft | 219 kts | 330° |
| 2026-04-25 03:51 | 33.95029 | -118.13639 | 4857 ft | 212 kts | 328° |
| 2026-04-25 03:52 | 33.96341 | -118.14534 | 4222 ft | 218 kts | 329° |
| 2026-04-25 03:52 | 33.97643 | -118.15440 | 3775 ft | 214 kts | 329° |
| 2026-04-25 03:52 | 33.98838 | -118.16401 | 3511 ft | 206 kts | 313° |
| 2026-04-25 03:52 | 33.99380 | -118.17937 | 3479 ft | 203 kts | 272° |
| 2026-04-25 03:53 | 33.99578 | -118.19636 | 3489 ft | 212 kts | 294° |
| 2026-04-25 03:53 | 34.00595 | -118.20900 | 3490 ft | 216 kts | 333° |
| 2026-04-25 03:53 | 34.02116 | -118.21211 | 3496 ft | 233 kts | 7° |
| 2026-04-25 03:53 | 34.03576 | -118.20401 | 3489 ft | 234 kts | 43° |
| 2026-04-25 03:54 | 34.04383 | -118.18757 | 3486 ft | 234 kts | 77° |
| 2026-04-25 03:54 | 34.04271 | -118.16836 | 3480 ft | 232 kts | 112° |
| 2026-04-25 03:54 | 34.03276 | -118.15358 | 3476 ft | 229 kts | 148° |
| 2026-04-25 03:54 | 34.01765 | -118.14848 | 3476 ft | 228 kts | 181° |
| 2026-04-25 03:55 | 34.00198 | -118.15090 | 3493 ft | 227 kts | 190° |
| 2026-04-25 03:55 | 33.98666 | -118.15535 | 3482 ft | 227 kts | 204° |
| 2026-04-25 03:55 | 33.97465 | -118.16721 | 3484 ft | 228 kts | 228° |
| 2026-04-25 03:55 | 33.96446 | -118.18214 | 3318 ft | 234 kts | 231° |
| 2026-04-25 03:56 | 33.95612 | -118.19848 | 3082 ft | 229 kts | 252° |
| 2026-04-25 03:56 | 33.95396 | -118.21746 | 2811 ft | 229 kts | 265° |
| 2026-04-25 03:56 | 33.95241 | -118.23655 | 2506 ft | 227 kts | 262° |
| 2026-04-25 03:56 | 33.95033 | -118.25530 | 2202 ft | 224 kts | 261° |
| 2026-04-25 03:57 | 33.94842 | -118.27391 | 1918 ft | 223 kts | 263° |
| 2026-04-25 03:57 | 33.94670 | -118.29172 | 1642 ft | 206 kts | 261° |
| 2026-04-25 03:57 | 33.94478 | -118.30916 | 1353 ft | 213 kts | 261° |
| 2026-04-25 03:57 | 33.94309 | -118.32704 | 1062 ft | 215 kts | 262° |
| 2026-04-25 03:58 | 33.94119 | -118.34477 | 769 ft | 203 kts | 261° |
| 2026-04-25 03:58 | 33.93968 | -118.36001 | 501 ft | 170 kts | 261° |
| 2026-04-25 03:58 | 33.93826 | -118.37429 | 315 ft | 171 kts | 261° |
| 2026-04-25 03:58 | 33.93680 | -118.38772 | 116 ft | 144 kts | 260° |
| 2026-04-25 03:59 | 33.93625 | -118.39300 | 120 ft | 18 kts | 259° |
| 2026-04-25 03:59 | 33.93579 | -118.39369 | 120 ft | 8 kts | 186° |
| 2026-04-25 03:59 | 33.93555 | -118.39371 | 118 ft | 0 kts | 183° |
| 2026-04-25 04:01 | 33.93550 | -118.39371 | 117 ft | 4 kts | 183° |
| 2026-04-25 04:01 | 33.93501 | -118.39405 | 119 ft | 12 kts | 246° |
| 2026-04-25 04:01 | 33.93484 | -118.39536 | 120 ft | 19 kts | 262° |
| 2026-04-25 04:02 | 33.93467 | -118.39686 | 120 ft | 16 kts | 264° |
| 2026-04-25 04:02 | 33.93462 | -118.39742 | 120 ft | 5 kts | 263° |
| 2026-04-25 04:02 | 33.93455 | -118.39795 | 119 ft | 2 kts | 249° |
| 2026-04-25 04:02 | 33.93413 | -118.39814 | 118 ft | 11 kts | 182° |
| 2026-04-25 04:03 | 33.93336 | -118.39824 | 120 ft | 14 kts | 186° |
| 2026-04-25 04:03 | 33.93265 | -118.39821 | 120 ft | 0 kts | 158° |